sensor_id;sensor_type;location;lat;lon;timestamp;P1;durP1;ratioP1;P2;durP2;ratioP2
3563;SDS011;1796;52.388;13.096;2023-04-23T00:00:40;13.30;;;9.30;;
3563;SDS011;1796;52.388;13.096;2023-04-23T00:03:08;9.40;;;8.00;;
3563;SDS011;1796;52.388;13.096;2023-04-23T00:05:36;16.50;;;11.93;;
3563;SDS011;1796;52.388;13.096;2023-04-23T00:08:06;9.33;;;8.13;;
3563;SDS011;1796;52.388;13.096;2023-04-23T00:10:35;10.83;;;8.93;;
3563;SDS011;1796;52.388;13.096;2023-04-23T00:13:04;11.93;;;9.00;;
3563;SDS011;1796;52.388;13.096;2023-04-23T00:15:31;10.50;;;8.40;;
3563;SDS011;1796;52.388;13.096;2023-04-23T00:17:59;12.80;;;8.63;;
3563;SDS011;1796;52.388;13.096;2023-04-23T00:20:25;12.63;;;8.27;;
3563;SDS011;1796;52.388;13.096;2023-04-23T00:22:52;10.20;;;8.30;;
3563;SDS011;1796;52.388;13.096;2023-04-23T00:25:19;11.03;;;8.63;;
3563;SDS011;1796;52.388;13.096;2023-04-23T00:27:46;16.50;;;8.10;;
3563;SDS011;1796;52.388;13.096;2023-04-23T00:30:15;10.00;;;8.47;;
3563;SDS011;1796;52.388;13.096;2023-04-23T00:32:42;16.07;;;8.90;;
3563;SDS011;1796;52.388;13.096;2023-04-23T00:35:09;12.00;;;9.00;;
3563;SDS011;1796;52.388;13.096;2023-04-23T00:37:36;10.00;;;8.90;;
3563;SDS011;1796;52.388;13.096;2023-04-23T00:40:04;9.20;;;8.23;;
3563;SDS011;1796;52.388;13.096;2023-04-23T00:42:31;11.63;;;8.20;;
3563;SDS011;1796;52.388;13.096;2023-04-23T00:44:58;15.73;;;8.90;;
3563;SDS011;1796;52.388;13.096;2023-04-23T00:47:29;13.60;;;8.50;;
3563;SDS011;1796;52.388;13.096;2023-04-23T00:49:56;9.20;;;8.10;;
3563;SDS011;1796;52.388;13.096;2023-04-23T00:52:24;8.80;;;7.80;;
3563;SDS011;1796;52.388;13.096;2023-04-23T00:54:53;10.57;;;8.40;;
3563;SDS011;1796;52.388;13.096;2023-04-23T00:57:20;9.70;;;8.70;;
3563;SDS011;1796;52.388;13.096;2023-04-23T00:59:47;10.80;;;9.50;;
3563;SDS011;1796;52.388;13.096;2023-04-23T01:02:14;15.27;;;9.30;;
3563;SDS011;1796;52.388;13.096;2023-04-23T01:04:43;16.63;;;9.53;;
3563;SDS011;1796;52.388;13.096;2023-04-23T01:07:10;11.87;;;8.70;;
3563;SDS011;1796;52.388;13.096;2023-04-23T01:09:38;15.33;;;9.73;;
3563;SDS011;1796;52.388;13.096;2023-04-23T01:12:05;20.27;;;9.83;;
3563;SDS011;1796;52.388;13.096;2023-04-23T01:14:32;10.93;;;9.80;;
3563;SDS011;1796;52.388;13.096;2023-04-23T01:17:00;12.23;;;8.67;;
3563;SDS011;1796;52.388;13.096;2023-04-23T01:19:27;12.87;;;9.37;;
3563;SDS011;1796;52.388;13.096;2023-04-23T01:21:56;17.47;;;9.97;;
3563;SDS011;1796;52.388;13.096;2023-04-23T01:24:26;11.83;;;9.57;;
3563;SDS011;1796;52.388;13.096;2023-04-23T01:26:54;12.83;;;9.60;;
3563;SDS011;1796;52.388;13.096;2023-04-23T01:29:22;14.57;;;9.80;;
3563;SDS011;1796;52.388;13.096;2023-04-23T01:31:49;12.90;;;11.10;;
3563;SDS011;1796;52.388;13.096;2023-04-23T01:34:16;15.37;;;10.83;;
3563;SDS011;1796;52.388;13.096;2023-04-23T01:36:44;14.60;;;10.20;;
3563;SDS011;1796;52.388;13.096;2023-04-23T01:39:12;15.13;;;10.90;;
3563;SDS011;1796;52.388;13.096;2023-04-23T01:41:41;12.47;;;11.10;;
3563;SDS011;1796;52.388;13.096;2023-04-23T01:44:08;18.37;;;10.77;;
3563;SDS011;1796;52.388;13.096;2023-04-23T01:46:35;16.03;;;10.63;;
3563;SDS011;1796;52.388;13.096;2023-04-23T01:49:02;20.53;;;11.70;;
3563;SDS011;1796;52.388;13.096;2023-04-23T01:51:29;17.40;;;10.43;;
3563;SDS011;1796;52.388;13.096;2023-04-23T01:53:56;15.10;;;11.60;;
3563;SDS011;1796;52.388;13.096;2023-04-23T01:56:24;18.50;;;11.43;;
3563;SDS011;1796;52.388;13.096;2023-04-23T01:58:53;20.47;;;11.50;;
3563;SDS011;1796;52.388;13.096;2023-04-23T02:01:21;13.20;;;11.70;;
3563;SDS011;1796;52.388;13.096;2023-04-23T02:03:48;15.20;;;12.70;;
3563;SDS011;1796;52.388;13.096;2023-04-23T02:06:15;14.97;;;11.90;;
3563;SDS011;1796;52.388;13.096;2023-04-23T02:08:42;19.00;;;12.23;;
3563;SDS011;1796;52.388;13.096;2023-04-23T02:11:09;16.30;;;13.27;;
3563;SDS011;1796;52.388;13.096;2023-04-23T02:13:36;17.77;;;12.43;;
3563;SDS011;1796;52.388;13.096;2023-04-23T02:16:04;15.80;;;12.07;;
3563;SDS011;1796;52.388;13.096;2023-04-23T02:18:32;21.70;;;12.60;;
3563;SDS011;1796;52.388;13.096;2023-04-23T02:20:58;15.80;;;12.13;;
3563;SDS011;1796;52.388;13.096;2023-04-23T02:23:27;18.10;;;12.50;;
3563;SDS011;1796;52.388;13.096;2023-04-23T02:25:54;17.40;;;12.00;;
3563;SDS011;1796;52.388;13.096;2023-04-23T02:28:20;13.27;;;11.37;;
3563;SDS011;1796;52.388;13.096;2023-04-23T02:30:47;14.00;;;12.07;;
3563;SDS011;1796;52.388;13.096;2023-04-23T02:33:15;16.90;;;12.77;;
3563;SDS011;1796;52.388;13.096;2023-04-23T02:35:43;16.63;;;12.63;;
3563;SDS011;1796;52.388;13.096;2023-04-23T02:38:10;13.97;;;12.00;;
3563;SDS011;1796;52.388;13.096;2023-04-23T02:40:37;17.27;;;11.73;;
3563;SDS011;1796;52.388;13.096;2023-04-23T02:43:04;13.57;;;11.90;;
3563;SDS011;1796;52.388;13.096;2023-04-23T02:45:31;15.27;;;12.20;;
3563;SDS011;1796;52.388;13.096;2023-04-23T02:47:58;16.97;;;12.20;;
3563;SDS011;1796;52.388;13.096;2023-04-23T02:50:26;14.37;;;12.20;;
3563;SDS011;1796;52.388;13.096;2023-04-23T02:52:53;16.33;;;12.47;;
3563;SDS011;1796;52.388;13.096;2023-04-23T02:55:20;20.30;;;12.00;;
3563;SDS011;1796;52.388;13.096;2023-04-23T02:57:49;14.43;;;11.63;;
3563;SDS011;1796;52.388;13.096;2023-04-23T03:00:16;18.77;;;12.03;;
3563;SDS011;1796;52.388;13.096;2023-04-23T03:02:43;23.03;;;12.60;;
3563;SDS011;1796;52.388;13.096;2023-04-23T03:05:10;19.37;;;10.90;;
3563;SDS011;1796;52.388;13.096;2023-04-23T03:07:38;13.77;;;11.90;;
3563;SDS011;1796;52.388;13.096;2023-04-23T03:10:05;16.80;;;11.10;;
3563;SDS011;1796;52.388;13.096;2023-04-23T03:12:33;12.93;;;10.80;;
3563;SDS011;1796;52.388;13.096;2023-04-23T03:15:00;15.23;;;12.50;;
3563;SDS011;1796;52.388;13.096;2023-04-23T03:17:27;14.90;;;13.17;;
3563;SDS011;1796;52.388;13.096;2023-04-23T03:19:54;14.80;;;12.13;;
3563;SDS011;1796;52.388;13.096;2023-04-23T03:22:20;13.30;;;12.00;;
3563;SDS011;1796;52.388;13.096;2023-04-23T03:24:49;14.57;;;12.40;;
3563;SDS011;1796;52.388;13.096;2023-04-23T03:27:15;20.63;;;11.90;;
3563;SDS011;1796;52.388;13.096;2023-04-23T03:29:42;16.30;;;11.53;;
3563;SDS011;1796;52.388;13.096;2023-04-23T03:32:10;16.87;;;11.40;;
3563;SDS011;1796;52.388;13.096;2023-04-23T03:34:37;17.23;;;12.10;;
3563;SDS011;1796;52.388;13.096;2023-04-23T03:37:04;16.23;;;11.07;;
3563;SDS011;1796;52.388;13.096;2023-04-23T03:39:31;10.97;;;9.70;;
3563;SDS011;1796;52.388;13.096;2023-04-23T03:41:59;16.77;;;12.33;;
3563;SDS011;1796;52.388;13.096;2023-04-23T03:44:26;11.63;;;10.43;;
3563;SDS011;1796;52.388;13.096;2023-04-23T03:46:53;15.03;;;11.37;;
3563;SDS011;1796;52.388;13.096;2023-04-23T03:49:19;14.80;;;12.10;;
3563;SDS011;1796;52.388;13.096;2023-04-23T03:51:47;16.10;;;11.13;;
3563;SDS011;1796;52.388;13.096;2023-04-23T03:54:13;15.20;;;11.60;;
3563;SDS011;1796;52.388;13.096;2023-04-23T03:56:40;10.27;;;9.03;;
3563;SDS011;1796;52.388;13.096;2023-04-23T03:59:08;14.27;;;10.13;;
3563;SDS011;1796;52.388;13.096;2023-04-23T04:01:36;16.93;;;10.60;;
3563;SDS011;1796;52.388;13.096;2023-04-23T04:04:02;14.07;;;10.00;;
3563;SDS011;1796;52.388;13.096;2023-04-23T04:06:29;12.13;;;9.93;;
3563;SDS011;1796;52.388;13.096;2023-04-23T04:08:56;11.90;;;9.50;;
3563;SDS011;1796;52.388;13.096;2023-04-23T04:11:23;10.93;;;9.10;;
3563;SDS011;1796;52.388;13.096;2023-04-23T04:13:50;11.90;;;8.93;;
3563;SDS011;1796;52.388;13.096;2023-04-23T04:16:18;9.70;;;8.70;;
3563;SDS011;1796;52.388;13.096;2023-04-23T04:18:45;16.97;;;10.37;;
3563;SDS011;1796;52.388;13.096;2023-04-23T04:21:12;10.13;;;9.03;;
3563;SDS011;1796;52.388;13.096;2023-04-23T04:23:40;10.90;;;9.07;;
3563;SDS011;1796;52.388;13.096;2023-04-23T04:26:06;14.57;;;8.83;;
3563;SDS011;1796;52.388;13.096;2023-04-23T04:28:33;13.20;;;8.90;;
3563;SDS011;1796;52.388;13.096;2023-04-23T04:31:01;12.17;;;8.93;;
3563;SDS011;1796;52.388;13.096;2023-04-23T04:33:30;15.60;;;8.90;;
3563;SDS011;1796;52.388;13.096;2023-04-23T04:35:59;10.90;;;9.80;;
3563;SDS011;1796;52.388;13.096;2023-04-23T04:38:27;11.83;;;8.87;;
3563;SDS011;1796;52.388;13.096;2023-04-23T04:40:54;16.13;;;9.57;;
3563;SDS011;1796;52.388;13.096;2023-04-23T04:43:24;14.60;;;9.20;;
3563;SDS011;1796;52.388;13.096;2023-04-23T04:45:51;12.70;;;9.43;;
3563;SDS011;1796;52.388;13.096;2023-04-23T04:48:18;9.13;;;8.20;;
3563;SDS011;1796;52.388;13.096;2023-04-23T04:50:46;10.93;;;8.20;;
3563;SDS011;1796;52.388;13.096;2023-04-23T04:53:13;7.57;;;6.90;;
3563;SDS011;1796;52.388;13.096;2023-04-23T04:55:40;14.77;;;8.07;;
3563;SDS011;1796;52.388;13.096;2023-04-23T04:58:07;9.77;;;6.27;;
3563;SDS011;1796;52.388;13.096;2023-04-23T05:00:33;11.50;;;7.87;;
3563;SDS011;1796;52.388;13.096;2023-04-23T05:03:00;10.47;;;7.33;;
3563;SDS011;1796;52.388;13.096;2023-04-23T05:05:28;10.00;;;6.83;;
3563;SDS011;1796;52.388;13.096;2023-04-23T05:07:56;9.10;;;6.87;;
3563;SDS011;1796;52.388;13.096;2023-04-23T05:10:26;8.83;;;7.60;;
3563;SDS011;1796;52.388;13.096;2023-04-23T05:12:53;8.00;;;7.20;;
3563;SDS011;1796;52.388;13.096;2023-04-23T05:15:20;7.30;;;6.60;;
3563;SDS011;1796;52.388;13.096;2023-04-23T05:17:46;19.10;;;7.13;;
3563;SDS011;1796;52.388;13.096;2023-04-23T05:20:14;7.80;;;7.00;;
3563;SDS011;1796;52.388;13.096;2023-04-23T05:22:41;9.80;;;7.57;;
3563;SDS011;1796;52.388;13.096;2023-04-23T05:25:10;8.37;;;7.50;;
3563;SDS011;1796;52.388;13.096;2023-04-23T05:27:37;9.17;;;7.50;;
3563;SDS011;1796;52.388;13.096;2023-04-23T05:30:06;14.37;;;8.70;;
3563;SDS011;1796;52.388;13.096;2023-04-23T05:32:34;10.80;;;7.70;;
3563;SDS011;1796;52.388;13.096;2023-04-23T05:35:02;12.03;;;7.30;;
3563;SDS011;1796;52.388;13.096;2023-04-23T05:37:30;7.63;;;6.90;;
3563;SDS011;1796;52.388;13.096;2023-04-23T05:39:57;9.33;;;7.47;;
3563;SDS011;1796;52.388;13.096;2023-04-23T05:42:25;10.83;;;8.30;;
3563;SDS011;1796;52.388;13.096;2023-04-23T05:44:52;9.70;;;7.60;;
3563;SDS011;1796;52.388;13.096;2023-04-23T05:47:19;12.03;;;6.90;;
3563;SDS011;1796;52.388;13.096;2023-04-23T05:49:46;8.80;;;7.90;;
3563;SDS011;1796;52.388;13.096;2023-04-23T05:52:13;9.00;;;8.00;;
3563;SDS011;1796;52.388;13.096;2023-04-23T05:54:40;11.63;;;7.80;;
3563;SDS011;1796;52.388;13.096;2023-04-23T05:57:07;8.33;;;7.53;;
3563;SDS011;1796;52.388;13.096;2023-04-23T05:59:35;12.83;;;7.53;;
3563;SDS011;1796;52.388;13.096;2023-04-23T06:02:02;9.23;;;7.20;;
3563;SDS011;1796;52.388;13.096;2023-04-23T06:04:29;9.37;;;7.20;;
3563;SDS011;1796;52.388;13.096;2023-04-23T06:06:56;10.73;;;7.40;;
3563;SDS011;1796;52.388;13.096;2023-04-23T06:09:23;9.53;;;7.47;;
3563;SDS011;1796;52.388;13.096;2023-04-23T06:11:51;9.83;;;7.30;;
3563;SDS011;1796;52.388;13.096;2023-04-23T06:14:18;10.03;;;6.60;;
3563;SDS011;1796;52.388;13.096;2023-04-23T06:16:47;6.63;;;5.97;;
3563;SDS011;1796;52.388;13.096;2023-04-23T06:19:14;6.57;;;5.97;;
3563;SDS011;1796;52.388;13.096;2023-04-23T06:21:40;8.03;;;6.50;;
3563;SDS011;1796;52.388;13.096;2023-04-23T06:24:07;6.27;;;5.60;;
3563;SDS011;1796;52.388;13.096;2023-04-23T06:26:34;9.87;;;5.80;;
3563;SDS011;1796;52.388;13.096;2023-04-23T06:29:01;6.17;;;5.67;;
3563;SDS011;1796;52.388;13.096;2023-04-23T06:31:28;11.40;;;5.63;;
3563;SDS011;1796;52.388;13.096;2023-04-23T06:33:56;6.57;;;5.90;;
3563;SDS011;1796;52.388;13.096;2023-04-23T06:36:23;7.10;;;6.20;;
3563;SDS011;1796;52.388;13.096;2023-04-23T06:38:50;7.57;;;6.10;;
3563;SDS011;1796;52.388;13.096;2023-04-23T06:41:17;6.40;;;5.90;;
3563;SDS011;1796;52.388;13.096;2023-04-23T06:43:44;9.40;;;6.30;;
3563;SDS011;1796;52.388;13.096;2023-04-23T06:46:12;6.60;;;6.00;;
3563;SDS011;1796;52.388;13.096;2023-04-23T06:48:39;6.33;;;5.63;;
3563;SDS011;1796;52.388;13.096;2023-04-23T06:51:07;9.23;;;6.40;;
3563;SDS011;1796;52.388;13.096;2023-04-23T06:53:34;12.73;;;5.97;;
3563;SDS011;1796;52.388;13.096;2023-04-23T06:56:01;7.47;;;6.80;;
3563;SDS011;1796;52.388;13.096;2023-04-23T06:58:28;6.23;;;5.73;;
3563;SDS011;1796;52.388;13.096;2023-04-23T07:00:56;6.53;;;6.03;;
3563;SDS011;1796;52.388;13.096;2023-04-23T07:03:24;7.83;;;7.03;;
3563;SDS011;1796;52.388;13.096;2023-04-23T07:05:51;8.73;;;6.27;;
3563;SDS011;1796;52.388;13.096;2023-04-23T07:08:19;10.57;;;7.40;;
3563;SDS011;1796;52.388;13.096;2023-04-23T07:10:46;11.17;;;7.20;;
3563;SDS011;1796;52.388;13.096;2023-04-23T07:13:13;11.23;;;7.33;;
3563;SDS011;1796;52.388;13.096;2023-04-23T07:15:40;10.43;;;6.50;;
3563;SDS011;1796;52.388;13.096;2023-04-23T07:18:07;11.87;;;7.10;;
3563;SDS011;1796;52.388;13.096;2023-04-23T07:20:34;7.60;;;7.00;;
3563;SDS011;1796;52.388;13.096;2023-04-23T07:23:01;7.83;;;6.97;;
3563;SDS011;1796;52.388;13.096;2023-04-23T07:25:30;7.90;;;7.10;;
3563;SDS011;1796;52.388;13.096;2023-04-23T07:27:57;11.10;;;7.33;;
3563;SDS011;1796;52.388;13.096;2023-04-23T07:30:25;9.70;;;7.30;;
3563;SDS011;1796;52.388;13.096;2023-04-23T07:32:53;7.90;;;6.50;;
3563;SDS011;1796;52.388;13.096;2023-04-23T07:35:20;11.10;;;6.73;;
3563;SDS011;1796;52.388;13.096;2023-04-23T07:37:47;7.33;;;6.60;;
3563;SDS011;1796;52.388;13.096;2023-04-23T07:40:18;8.10;;;7.40;;
3563;SDS011;1796;52.388;13.096;2023-04-23T07:42:47;9.60;;;7.33;;
3563;SDS011;1796;52.388;13.096;2023-04-23T07:45:15;11.90;;;7.10;;
3563;SDS011;1796;52.388;13.096;2023-04-23T07:47:42;8.87;;;7.17;;
3563;SDS011;1796;52.388;13.096;2023-04-23T07:50:11;11.00;;;7.50;;
3563;SDS011;1796;52.388;13.096;2023-04-23T07:52:39;13.63;;;8.17;;
3563;SDS011;1796;52.388;13.096;2023-04-23T07:55:06;9.63;;;8.60;;
3563;SDS011;1796;52.388;13.096;2023-04-23T07:57:33;10.40;;;8.20;;
3563;SDS011;1796;52.388;13.096;2023-04-23T08:00:02;15.30;;;7.80;;
3563;SDS011;1796;52.388;13.096;2023-04-23T08:02:29;15.80;;;8.47;;
3563;SDS011;1796;52.388;13.096;2023-04-23T08:04:56;11.20;;;7.50;;
3563;SDS011;1796;52.388;13.096;2023-04-23T08:07:22;7.83;;;7.10;;
3563;SDS011;1796;52.388;13.096;2023-04-23T08:09:50;10.40;;;7.90;;
3563;SDS011;1796;52.388;13.096;2023-04-23T08:12:17;9.07;;;7.50;;
3563;SDS011;1796;52.388;13.096;2023-04-23T08:14:45;8.17;;;7.37;;
3563;SDS011;1796;52.388;13.096;2023-04-23T08:17:13;7.80;;;7.10;;
3563;SDS011;1796;52.388;13.096;2023-04-23T08:19:40;8.90;;;8.00;;
3563;SDS011;1796;52.388;13.096;2023-04-23T08:22:06;8.43;;;7.57;;
3563;SDS011;1796;52.388;13.096;2023-04-23T08:24:34;12.73;;;7.37;;
3563;SDS011;1796;52.388;13.096;2023-04-23T08:27:01;8.10;;;6.73;;
3563;SDS011;1796;52.388;13.096;2023-04-23T08:29:28;7.53;;;6.87;;
3563;SDS011;1796;52.388;13.096;2023-04-23T08:31:55;10.43;;;7.53;;
3563;SDS011;1796;52.388;13.096;2023-04-23T08:34:23;9.27;;;6.50;;
3563;SDS011;1796;52.388;13.096;2023-04-23T08:36:50;8.20;;;7.03;;
3563;SDS011;1796;52.388;13.096;2023-04-23T08:39:17;8.20;;;7.50;;
3563;SDS011;1796;52.388;13.096;2023-04-23T08:41:44;9.93;;;6.77;;
3563;SDS011;1796;52.388;13.096;2023-04-23T08:44:18;10.07;;;9.07;;
3563;SDS011;1796;52.388;13.096;2023-04-23T08:46:48;8.00;;;7.20;;
3563;SDS011;1796;52.388;13.096;2023-04-23T08:49:16;12.73;;;8.20;;
3563;SDS011;1796;52.388;13.096;2023-04-23T08:51:47;7.43;;;6.73;;
3563;SDS011;1796;52.388;13.096;2023-04-23T08:54:15;9.10;;;7.63;;
3563;SDS011;1796;52.388;13.096;2023-04-23T08:56:46;7.97;;;7.17;;
3563;SDS011;1796;52.388;13.096;2023-04-23T08:59:14;9.70;;;8.20;;
3563;SDS011;1796;52.388;13.096;2023-04-23T09:01:44;9.00;;;7.23;;
3563;SDS011;1796;52.388;13.096;2023-04-23T09:04:11;8.30;;;7.50;;
3563;SDS011;1796;52.388;13.096;2023-04-23T09:06:41;10.57;;;7.67;;
3563;SDS011;1796;52.388;13.096;2023-04-23T09:09:09;7.43;;;6.73;;
3563;SDS011;1796;52.388;13.096;2023-04-23T09:11:37;8.90;;;7.57;;
3563;SDS011;1796;52.388;13.096;2023-04-23T09:14:05;10.70;;;6.13;;
3563;SDS011;1796;52.388;13.096;2023-04-23T09:16:31;6.73;;;6.03;;
3563;SDS011;1796;52.388;13.096;2023-04-23T09:18:58;7.50;;;6.77;;
3563;SDS011;1796;52.388;13.096;2023-04-23T09:21:25;9.63;;;5.73;;
3563;SDS011;1796;52.388;13.096;2023-04-23T09:23:52;6.37;;;5.60;;
3563;SDS011;1796;52.388;13.096;2023-04-23T09:26:21;6.17;;;5.20;;
3563;SDS011;1796;52.388;13.096;2023-04-23T09:28:48;5.90;;;5.40;;
3563;SDS011;1796;52.388;13.096;2023-04-23T09:31:19;6.33;;;5.53;;
3563;SDS011;1796;52.388;13.096;2023-04-23T09:33:50;5.93;;;5.43;;
3563;SDS011;1796;52.388;13.096;2023-04-23T09:36:19;6.33;;;5.70;;
3563;SDS011;1796;52.388;13.096;2023-04-23T09:38:47;6.53;;;5.93;;
3563;SDS011;1796;52.388;13.096;2023-04-23T09:41:22;8.90;;;6.43;;
3563;SDS011;1796;52.388;13.096;2023-04-23T09:43:51;8.13;;;7.10;;
3563;SDS011;1796;52.388;13.096;2023-04-23T09:46:31;14.70;;;7.00;;
3563;SDS011;1796;52.388;13.096;2023-04-23T09:48:59;10.13;;;7.63;;
3563;SDS011;1796;52.388;13.096;2023-04-23T09:51:30;8.97;;;8.00;;
3563;SDS011;1796;52.388;13.096;2023-04-23T09:53:57;12.27;;;8.67;;
3563;SDS011;1796;52.388;13.096;2023-04-23T09:56:27;13.30;;;9.70;;
3563;SDS011;1796;52.388;13.096;2023-04-23T09:58:55;14.60;;;9.97;;
3563;SDS011;1796;52.388;13.096;2023-04-23T10:01:26;14.93;;;11.17;;
3563;SDS011;1796;52.388;13.096;2023-04-23T10:03:53;15.23;;;10.50;;
3563;SDS011;1796;52.388;13.096;2023-04-23T10:06:25;16.37;;;11.77;;
3563;SDS011;1796;52.388;13.096;2023-04-23T10:08:54;14.17;;;11.63;;
3563;SDS011;1796;52.388;13.096;2023-04-23T10:11:21;13.00;;;10.93;;
3563;SDS011;1796;52.388;13.096;2023-04-23T10:13:51;14.60;;;11.73;;
3563;SDS011;1796;52.388;13.096;2023-04-23T10:16:20;11.60;;;10.40;;
3563;SDS011;1796;52.388;13.096;2023-04-23T10:18:49;15.73;;;11.60;;
3563;SDS011;1796;52.388;13.096;2023-04-23T10:21:17;17.07;;;10.57;;
3563;SDS011;1796;52.388;13.096;2023-04-23T10:23:45;14.77;;;12.03;;
3563;SDS011;1796;52.388;13.096;2023-04-23T10:26:15;13.10;;;10.73;;
3563;SDS011;1796;52.388;13.096;2023-04-23T10:28:45;14.97;;;12.43;;
3563;SDS011;1796;52.388;13.096;2023-04-23T10:31:14;18.73;;;11.30;;
3563;SDS011;1796;52.388;13.096;2023-04-23T10:33:43;19.20;;;11.13;;
3563;SDS011;1796;52.388;13.096;2023-04-23T10:36:10;13.27;;;10.70;;
3563;SDS011;1796;52.388;13.096;2023-04-23T10:38:39;10.93;;;9.83;;
3563;SDS011;1796;52.388;13.096;2023-04-23T10:41:07;9.93;;;8.97;;
3563;SDS011;1796;52.388;13.096;2023-04-23T10:43:34;11.33;;;9.00;;
3563;SDS011;1796;52.388;13.096;2023-04-23T10:46:01;8.70;;;6.87;;
3563;SDS011;1796;52.388;13.096;2023-04-23T10:48:39;7.67;;;6.87;;
3563;SDS011;1796;52.388;13.096;2023-04-23T10:51:16;9.63;;;8.67;;
3563;SDS011;1796;52.388;13.096;2023-04-23T10:53:43;10.60;;;8.07;;
3563;SDS011;1796;52.388;13.096;2023-04-23T10:56:11;14.60;;;8.70;;
3563;SDS011;1796;52.388;13.096;2023-04-23T10:58:46;10.37;;;7.57;;
3563;SDS011;1796;52.388;13.096;2023-04-23T11:01:15;6.63;;;5.93;;
3563;SDS011;1796;52.388;13.096;2023-04-23T11:03:43;6.60;;;6.00;;
3563;SDS011;1796;52.388;13.096;2023-04-23T11:06:12;5.10;;;4.70;;
3563;SDS011;1796;52.388;13.096;2023-04-23T11:08:49;5.47;;;5.00;;
3563;SDS011;1796;52.388;13.096;2023-04-23T11:11:18;4.87;;;4.47;;
3563;SDS011;1796;52.388;13.096;2023-04-23T11:14:09;5.40;;;4.90;;
3563;SDS011;1796;52.388;13.096;2023-04-23T11:16:39;7.87;;;4.70;;
3563;SDS011;1796;52.388;13.096;2023-04-23T11:19:08;5.47;;;5.07;;
3563;SDS011;1796;52.388;13.096;2023-04-23T11:21:55;5.70;;;5.20;;
3563;SDS011;1796;52.388;13.096;2023-04-23T11:24:23;8.00;;;5.77;;
3563;SDS011;1796;52.388;13.096;2023-04-23T11:26:50;6.53;;;5.37;;
3563;SDS011;1796;52.388;13.096;2023-04-23T11:29:20;5.23;;;4.73;;
3563;SDS011;1796;52.388;13.096;2023-04-23T11:31:49;5.70;;;5.20;;
3563;SDS011;1796;52.388;13.096;2023-04-23T11:34:17;5.03;;;4.60;;
3563;SDS011;1796;52.388;13.096;2023-04-23T11:36:44;5.33;;;4.93;;
3563;SDS011;1796;52.388;13.096;2023-04-23T11:39:13;5.27;;;4.83;;
3563;SDS011;1796;52.388;13.096;2023-04-23T11:41:40;5.40;;;4.90;;
3563;SDS011;1796;52.388;13.096;2023-04-23T11:44:07;5.13;;;4.63;;
3563;SDS011;1796;52.388;13.096;2023-04-23T11:46:35;9.40;;;4.00;;
3563;SDS011;1796;52.388;13.096;2023-04-23T11:49:02;3.77;;;3.47;;
3563;SDS011;1796;52.388;13.096;2023-04-23T11:51:31;13.13;;;4.23;;
3563;SDS011;1796;52.388;13.096;2023-04-23T11:54:01;4.53;;;3.40;;
3563;SDS011;1796;52.388;13.096;2023-04-23T11:56:29;3.80;;;3.60;;
3563;SDS011;1796;52.388;13.096;2023-04-23T11:58:59;6.53;;;4.17;;
3563;SDS011;1796;52.388;13.096;2023-04-23T12:01:38;3.97;;;3.67;;
3563;SDS011;1796;52.388;13.096;2023-04-23T12:04:09;4.40;;;4.00;;
3563;SDS011;1796;52.388;13.096;2023-04-23T12:06:38;6.73;;;4.77;;
3563;SDS011;1796;52.388;13.096;2023-04-23T12:09:06;5.40;;;4.10;;
3563;SDS011;1796;52.388;13.096;2023-04-23T12:11:34;4.63;;;4.17;;
3563;SDS011;1796;52.388;13.096;2023-04-23T12:14:01;6.57;;;4.70;;
3563;SDS011;1796;52.388;13.096;2023-04-23T12:16:34;8.10;;;5.00;;
3563;SDS011;1796;52.388;13.096;2023-04-23T12:19:03;6.20;;;5.00;;
3563;SDS011;1796;52.388;13.096;2023-04-23T12:21:32;5.70;;;5.20;;
3563;SDS011;1796;52.388;13.096;2023-04-23T12:24:01;6.70;;;4.90;;
3563;SDS011;1796;52.388;13.096;2023-04-23T12:26:29;7.00;;;4.77;;
3563;SDS011;1796;52.388;13.096;2023-04-23T12:28:57;5.00;;;4.47;;
3563;SDS011;1796;52.388;13.096;2023-04-23T12:31:26;4.37;;;4.07;;
3563;SDS011;1796;52.388;13.096;2023-04-23T12:33:58;4.37;;;4.07;;
3563;SDS011;1796;52.388;13.096;2023-04-23T12:36:28;4.43;;;4.10;;
3563;SDS011;1796;52.388;13.096;2023-04-23T12:41:49;4.23;;;3.90;;
3563;SDS011;1796;52.388;13.096;2023-04-23T12:44:17;4.13;;;3.80;;
3563;SDS011;1796;52.388;13.096;2023-04-23T12:46:44;3.93;;;3.50;;
3563;SDS011;1796;52.388;13.096;2023-04-23T12:49:10;4.63;;;4.20;;
3563;SDS011;1796;52.388;13.096;2023-04-23T12:51:37;3.40;;;3.20;;
3563;SDS011;1796;52.388;13.096;2023-04-23T12:54:04;3.30;;;3.10;;
3563;SDS011;1796;52.388;13.096;2023-04-23T12:56:32;3.47;;;3.20;;
3563;SDS011;1796;52.388;13.096;2023-04-23T12:59:00;3.60;;;3.37;;
3563;SDS011;1796;52.388;13.096;2023-04-23T13:01:29;5.60;;;3.23;;
3563;SDS011;1796;52.388;13.096;2023-04-23T13:03:56;3.30;;;3.10;;
3563;SDS011;1796;52.388;13.096;2023-04-23T13:06:22;3.50;;;3.20;;
3563;SDS011;1796;52.388;13.096;2023-04-23T13:08:50;3.93;;;3.63;;
3563;SDS011;1796;52.388;13.096;2023-04-23T13:11:18;3.90;;;3.70;;
3563;SDS011;1796;52.388;13.096;2023-04-23T13:13:46;3.47;;;3.27;;
3563;SDS011;1796;52.388;13.096;2023-04-23T13:16:13;3.10;;;2.90;;
3563;SDS011;1796;52.388;13.096;2023-04-23T13:18:40;5.40;;;2.90;;
3563;SDS011;1796;52.388;13.096;2023-04-23T13:21:08;3.20;;;2.90;;
3563;SDS011;1796;52.388;13.096;2023-04-23T13:23:35;4.27;;;3.87;;
3563;SDS011;1796;52.388;13.096;2023-04-23T13:26:02;3.23;;;3.03;;
3563;SDS011;1796;52.388;13.096;2023-04-23T13:28:32;3.33;;;3.13;;
3563;SDS011;1796;52.388;13.096;2023-04-23T13:31:00;3.43;;;3.13;;
3563;SDS011;1796;52.388;13.096;2023-04-23T13:33:28;3.90;;;3.70;;
3563;SDS011;1796;52.388;13.096;2023-04-23T13:35:54;3.80;;;3.50;;
3563;SDS011;1796;52.388;13.096;2023-04-23T13:38:22;4.47;;;4.07;;
3563;SDS011;1796;52.388;13.096;2023-04-23T13:40:50;5.23;;;3.03;;
3563;SDS011;1796;52.388;13.096;2023-04-23T13:43:17;3.50;;;3.20;;
3563;SDS011;1796;52.388;13.096;2023-04-23T13:45:44;3.13;;;2.93;;
3563;SDS011;1796;52.388;13.096;2023-04-23T13:48:13;3.20;;;2.87;;
3563;SDS011;1796;52.388;13.096;2023-04-23T13:50:40;3.30;;;2.93;;
3563;SDS011;1796;52.388;13.096;2023-04-23T13:53:08;4.27;;;2.37;;
3563;SDS011;1796;52.388;13.096;2023-04-23T13:55:35;3.20;;;3.00;;
3563;SDS011;1796;52.388;13.096;2023-04-23T13:58:02;3.40;;;3.20;;
3563;SDS011;1796;52.388;13.096;2023-04-23T14:00:30;2.60;;;2.50;;
3563;SDS011;1796;52.388;13.096;2023-04-23T14:02:56;3.10;;;2.90;;
3563;SDS011;1796;52.388;13.096;2023-04-23T14:05:25;4.30;;;2.30;;
3563;SDS011;1796;52.388;13.096;2023-04-23T14:07:51;9.63;;;3.67;;
3563;SDS011;1796;52.388;13.096;2023-04-23T14:10:18;2.70;;;2.60;;
3563;SDS011;1796;52.388;13.096;2023-04-23T14:12:45;2.90;;;2.80;;
3563;SDS011;1796;52.388;13.096;2023-04-23T14:15:12;4.57;;;2.70;;
3563;SDS011;1796;52.388;13.096;2023-04-23T14:17:39;2.13;;;2.03;;
3563;SDS011;1796;52.388;13.096;2023-04-23T14:20:07;2.93;;;2.73;;
3563;SDS011;1796;52.388;13.096;2023-04-23T14:22:36;3.03;;;2.43;;
3563;SDS011;1796;52.388;13.096;2023-04-23T14:25:03;2.50;;;2.40;;
3563;SDS011;1796;52.388;13.096;2023-04-23T14:27:39;2.30;;;1.90;;
3563;SDS011;1796;52.388;13.096;2023-04-23T14:30:12;2.43;;;2.27;;
3563;SDS011;1796;52.388;13.096;2023-04-23T14:32:41;3.00;;;1.80;;
3563;SDS011;1796;52.388;13.096;2023-04-23T14:35:08;2.40;;;2.30;;
3563;SDS011;1796;52.388;13.096;2023-04-23T14:37:36;2.10;;;2.00;;
3563;SDS011;1796;52.388;13.096;2023-04-23T14:40:07;2.47;;;2.37;;
3563;SDS011;1796;52.388;13.096;2023-04-23T14:42:37;2.47;;;2.27;;
3563;SDS011;1796;52.388;13.096;2023-04-23T14:45:04;2.00;;;1.90;;
3563;SDS011;1796;52.388;13.096;2023-04-23T14:47:31;2.23;;;2.13;;
3563;SDS011;1796;52.388;13.096;2023-04-23T14:49:58;2.33;;;2.17;;
3563;SDS011;1796;52.388;13.096;2023-04-23T14:52:25;2.23;;;2.13;;
3563;SDS011;1796;52.388;13.096;2023-04-23T14:54:54;2.60;;;2.03;;
3563;SDS011;1796;52.388;13.096;2023-04-23T14:57:21;2.40;;;2.20;;
3563;SDS011;1796;52.388;13.096;2023-04-23T14:59:47;6.60;;;2.13;;